31.3°F
Current conditions from King Hill
Updated every 5 minutes
 
  Thursday December 18, 2014

Station Historical Data
Daily Summary for May 1, 2012 Units:  English    Metric   Both
« Previous Day
Next Day »
Daily Weekly Monthly Yearly Custom
  High: Low: Average:
Temperature: 52.2 °F 42.8 °F 47 °F
Dew Point: 44.1 °F 30.8 °F 40.5 °F
Humidity: 92% 45% 79%
Wind Speed: 7.0mph 0.0mph 2.9mph
Wind Gust: 15.0mph - -
Wind- - South
Pressure: 30.08 in 29.94 in -
Precipitation: 0.39 in    
Historical Graphs
 
 
Tabular Data for May 1, 2012
Time Temperature Dew Point Pressure Wind Wind Speed Wind Gust Humidity Daily Rainfall
00:04 48.7 °F 33.7 °F 30.08 in Calm   2.0 mph 56% 0.00 in
00:09 48.5 °F 34.8 °F 30.08 in Calm   2.0 mph 59% 0.00 in
00:14 48.1 °F 35.3 °F 30.08 in Calm   2.0 mph 61% 0.00 in
00:19 47.9 °F 34.3 °F 30.08 in Calm   3.0 mph 59% 0.00 in
00:29 48.8 °F 32.9 °F 30.07 in Calm   5.0 mph 54% 0.00 in
00:34 49.9 °F 32.5 °F 30.07 in SE 1.0 mph 5.0 mph 51% 0.00 in
00:39 50.5 °F 31.5 °F 30.07 in Calm   5.0 mph 48% 0.00 in
00:44 50.6 °F 31.6 °F 30.07 in Calm   3.0 mph 48% 0.00 in
00:49 50.8 °F 30.8 °F 30.07 in SSE 1.0 mph 5.0 mph 46% 0.00 in
00:54 50.8 °F 32.8 °F 30.07 in Calm   5.0 mph 50% 0.00 in
00:59 50.3 °F 33.8 °F 30.06 in Calm   1.0 mph 53% 0.00 in
01:04 49.9 °F 32.0 °F 30.05 in Calm   2.0 mph 50% 0.00 in
01:09 49.9 °F 33.0 °F 30.05 in Calm   2.0 mph 52% 0.00 in
01:14 49.9 °F 32.5 °F 30.05 in SE 1.0 mph 6.0 mph 51% 0.00 in
01:19 50.3 °F 33.4 °F 30.04 in Calm   6.0 mph 52% 0.00 in
01:24 50.5 °F 31.5 °F 30.04 in SE 1.0 mph 6.0 mph 48% 0.00 in
01:34 51.0 °F 32.0 °F 30.04 in SSE 1.0 mph 8.0 mph 48% 0.00 in
01:39 51.0 °F 32.0 °F 30.04 in Calm   6.0 mph 48% 0.00 in
01:44 51.0 °F 32.5 °F 30.03 in SE 2.0 mph 7.0 mph 49% 0.00 in
01:49 51.2 °F 31.7 °F 30.03 in SSE 3.0 mph 11.0 mph 47% 0.00 in
01:54 51.7 °F 31.6 °F 30.03 in South 3.0 mph 11.0 mph 46% 0.00 in
01:59 52.0 °F 31.9 °F 30.02 in Calm   10.0 mph 46% 0.00 in
02:04 52.0 °F 32.4 °F 30.02 in South 2.0 mph 10.0 mph 47% 0.00 in
02:09 52.2 °F 31.5 °F 30.02 in SSE 3.0 mph 9.0 mph 45% 0.00 in
02:14 52.2 °F 31.5 °F 30.02 in SSW 2.0 mph 9.0 mph 45% 0.00 in
02:19 52.2 °F 31.5 °F 30.02 in SSE 2.0 mph 9.0 mph 45% 0.00 in
02:24 52.1 °F 32.0 °F 30.01 in SSE 1.0 mph 6.0 mph 46% 0.00 in
02:29 52.1 °F 32.0 °F 30.01 in Calm   6.0 mph 46% 0.00 in
02:34 52.0 °F 31.9 °F 30.01 in South 1.0 mph 6.0 mph 46% 0.00 in
02:39 51.8 °F 32.2 °F 30.01 in SSW 1.0 mph 5.0 mph 47% 0.00 in
02:44 51.6 °F 31.5 °F 30.01 in South 2.0 mph 8.0 mph 46% 0.00 in
02:49 51.6 °F 31.5 °F 30.01 in Calm   8.0 mph 46% 0.00 in
02:54 51.5 °F 31.9 °F 30.01 in Calm   8.0 mph 47% 0.00 in
03:04 51.4 °F 33.9 °F 30.01 in SSW 1.0 mph 6.0 mph 51% 0.00 in
03:09 50.8 °F 36.6 °F 30.01 in South 1.0 mph 6.0 mph 58% 0.00 in
03:14 49.6 °F 38.3 °F 30.01 in Calm   5.0 mph 65% 0.00 in
03:19 48.3 °F 38.6 °F 30.01 in Calm     69% 0.00 in
03:24 47.3 °F 38.7 °F 30.02 in Calm     72% 0.00 in
03:34 47.4 °F 36.6 °F 30.01 in SSW 6.0 mph 15.0 mph 66% 0.01 in
03:39 47.3 °F 36.9 °F 30.01 in SW 3.0 mph 15.0 mph 67% 0.01 in
03:44 47.0 °F 37.0 °F 30.01 in SSW 4.0 mph 12.0 mph 68% 0.01 in
03:49 46.8 °F 37.2 °F 30.01 in Calm   10.0 mph 69% 0.01 in
03:59 46.3 °F 37.4 °F 30.01 in SSW 2.0 mph 8.0 mph 71% 0.01 in
04:09 45.6 °F 37.8 °F 30.00 in SSW 5.0 mph 10.0 mph 74% 0.02 in
04:14 45.3 °F 38.2 °F 30.00 in SSW 2.0 mph 10.0 mph 76% 0.02 in
04:19 45.0 °F 38.6 °F 29.99 in Calm   7.0 mph 78% 0.02 in
04:24 44.7 °F 38.6 °F 29.99 in Calm   5.0 mph 79% 0.03 in
04:29 44.5 °F 38.7 °F 29.99 in South 1.0 mph 4.0 mph 80% 0.04 in
04:34 44.3 °F 38.8 °F 29.99 in Calm   5.0 mph 81% 0.04 in
04:39 44.2 °F 39.1 °F 29.98 in Calm   5.0 mph 82% 0.04 in
04:44 44.0 °F 38.9 °F 29.98 in Calm     82% 0.05 in
04:49 43.8 °F 39.0 °F 29.98 in Calm     83% 0.05 in
04:54 43.8 °F 39.0 °F 29.98 in Calm     83% 0.06 in
04:59 43.7 °F 39.2 °F 29.97 in Calm   2.0 mph 84% 0.06 in
05:04 43.7 °F 39.2 °F 29.97 in SSE 1.0 mph 6.0 mph 84% 0.07 in
05:09 43.7 °F 39.2 °F 29.97 in Calm   6.0 mph 84% 0.07 in
05:14 43.6 °F 39.4 °F 29.96 in Calm   5.0 mph 85% 0.08 in
05:19 43.6 °F 39.4 °F 29.96 in Calm   3.0 mph 85% 0.08 in
05:24 43.6 °F 39.4 °F 29.96 in Calm   3.0 mph 85% 0.09 in
05:34 43.6 °F 39.7 °F 29.95 in Calm     86% 0.10 in
05:39 43.6 °F 39.7 °F 29.96 in Calm   2.0 mph 86% 0.11 in
05:44 43.5 °F 39.6 °F 29.96 in Calm   2.0 mph 86% 0.13 in
05:49 43.5 °F 39.6 °F 29.97 in Calm     86% 0.14 in
05:54 43.5 °F 39.9 °F 29.97 in Calm   4.0 mph 87% 0.16 in
05:59 43.5 °F 39.9 °F 29.98 in SSW 1.0 mph 5.0 mph 87% 0.17 in
06:04 43.4 °F 39.8 °F 29.98 in Calm   5.0 mph 87% 0.18 in
06:09 43.3 °F 39.7 °F 29.98 in SSW 2.0 mph 6.0 mph 87% 0.20 in
06:14 43.2 °F 39.6 °F 29.98 in SW 1.0 mph 6.0 mph 87% 0.20 in
06:19 43.1 °F 39.5 °F 29.98 in Calm   5.0 mph 87% 0.21 in
06:24 43.0 °F 39.7 °F 29.97 in South 4.0 mph 9.0 mph 88% 0.22 in
06:29 42.9 °F 39.6 °F 29.96 in South 3.0 mph 9.0 mph 88% 0.22 in
06:34 42.9 °F 39.6 °F 29.96 in South 2.0 mph 9.0 mph 88% 0.22 in
06:44 42.8 °F 39.5 °F 29.96 in Calm   9.0 mph 88% 0.23 in
06:54 42.9 °F 39.6 °F 29.96 in South 2.0 mph 9.0 mph 88% 0.24 in
06:59 42.9 °F 39.6 °F 29.96 in SSE 4.0 mph 11.0 mph 88% 0.25 in
07:04 43.0 °F 39.7 °F 29.96 in South 3.0 mph 12.0 mph 88% 0.26 in
07:09 43.0 °F 39.7 °F 29.96 in South 1.0 mph 12.0 mph 88% 0.26 in
07:14 43.1 °F 39.8 °F 29.96 in South 2.0 mph 8.0 mph 88% 0.27 in
07:19 43.1 °F 39.8 °F 29.96 in South 3.0 mph 9.0 mph 88% 0.28 in
07:24 43.2 °F 39.9 °F 29.96 in South 3.0 mph 9.0 mph 88% 0.28 in
07:29 43.3 °F 40.3 °F 29.96 in South 2.0 mph 9.0 mph 89% 0.28 in
07:34 43.4 °F 40.4 °F 29.96 in South 2.0 mph 12.0 mph 89% 0.29 in
07:39 43.4 °F 40.4 °F 29.96 in SSW 2.0 mph 12.0 mph 89% 0.30 in
07:44 43.4 °F 40.4 °F 29.97 in SSW 5.0 mph 11.0 mph 89% 0.30 in
07:49 43.5 °F 40.5 °F 29.97 in South 4.0 mph 11.0 mph 89% 0.30 in
07:54 43.5 °F 40.5 °F 29.96 in SSW 3.0 mph 9.0 mph 89% 0.31 in
07:59 43.5 °F 40.5 °F 29.96 in South 3.0 mph 10.0 mph 89% 0.32 in
08:04 43.5 °F 40.5 °F 29.97 in SSW 1.0 mph 10.0 mph 89% 0.33 in
08:09 43.6 °F 40.6 °F 29.97 in SSW 3.0 mph 12.0 mph 89% 0.33 in
08:14 43.6 °F 40.6 °F 29.97 in South 3.0 mph 12.0 mph 89% 0.34 in
08:19 43.6 °F 40.6 °F 29.97 in SSW 5.0 mph 14.0 mph 89% 0.34 in
08:24 43.7 °F 40.7 °F 29.97 in South 2.0 mph 14.0 mph 89% 0.34 in
08:29 43.7 °F 40.7 °F 29.97 in South 4.0 mph 13.0 mph 89% 0.35 in
08:34 43.6 °F 40.6 °F 29.97 in SSW 3.0 mph 13.0 mph 89% 0.35 in
08:44 43.8 °F 40.8 °F 29.97 in South 5.0 mph 7.0 mph 89% 0.36 in
08:49 43.8 °F 40.8 °F 29.97 in South 4.0 mph 11.0 mph 89% 0.36 in
08:54 43.8 °F 40.8 °F 29.97 in SSW 4.0 mph 11.0 mph 89% 0.36 in
08:59 43.8 °F 40.8 °F 29.97 in South 3.0 mph 12.0 mph 89% 0.36 in
09:04 43.8 °F 40.8 °F 29.96 in South 5.0 mph 12.0 mph 89% 0.36 in
09:09 43.8 °F 40.8 °F 29.97 in South 3.0 mph 10.0 mph 89% 0.36 in
09:14 43.8 °F 40.8 °F 29.97 in South 3.0 mph 10.0 mph 89% 0.37 in
09:19 43.8 °F 40.8 °F 29.96 in South 3.0 mph 9.0 mph 89% 0.37 in
09:24 43.8 °F 40.8 °F 29.96 in South 5.0 mph 11.0 mph 89% 0.37 in
09:29 43.8 °F 40.8 °F 29.96 in South 5.0 mph 14.0 mph 89% 0.38 in
09:34 43.8 °F 40.8 °F 29.96 in South 4.0 mph 14.0 mph 89% 0.38 in
09:45 44.1 °F 41.1 °F 29.96 in South 6.0 mph 13.0 mph 89% 0.38 in
09:54 44.3 °F 41.6 °F 29.96 in SSW 3.0 mph 9.0 mph 90% 0.39 in
09:59 44.4 °F 41.4 °F 29.96 in SSW 3.0 mph 7.0 mph 89% 0.39 in
10:04 44.4 °F 41.4 °F 29.96 in SSW 3.0 mph 10.0 mph 89% 0.39 in
10:09 44.5 °F 41.5 °F 29.96 in SSW 4.0 mph 10.0 mph 89% 0.39 in
10:14 44.6 °F 41.6 °F 29.96 in SW 2.0 mph 8.0 mph 89% 0.39 in
10:19 45.0 °F 42.2 °F 29.96 in South 3.0 mph 7.0 mph 90% 0.39 in
10:24 45.2 °F 42.4 °F 29.96 in South 1.0 mph 9.0 mph 90% 0.39 in
10:29 45.3 °F 42.3 °F 29.96 in SSW 5.0 mph 10.0 mph 89% 0.39 in
10:34 45.4 °F 42.4 °F 29.96 in South 5.0 mph 10.0 mph 89% 0.39 in
10:39 45.4 °F 42.4 °F 29.96 in South 4.0 mph 11.0 mph 89% 0.39 in
10:49 45.5 °F 42.4 °F 29.96 in SSW 4.0 mph 8.0 mph 89% 0.39 in
10:54 45.6 °F 42.5 °F 29.96 in SSW 3.0 mph 10.0 mph 89% 0.39 in
10:59 45.8 °F 42.7 °F 29.96 in South 2.0 mph 10.0 mph 89% 0.39 in
11:04 46.0 °F 42.9 °F 29.96 in SSW 1.0 mph 10.0 mph 89% 0.39 in
11:09 46.0 °F 42.6 °F 29.96 in South 3.0 mph 9.0 mph 88% 0.39 in
11:14 46.0 °F 42.6 °F 29.96 in South 5.0 mph 9.0 mph 88% 0.39 in
11:19 46.0 °F 43.8 °F 29.97 in South 3.0 mph 11.0 mph 92% 0.39 in
11:24 46.1 °F 42.7 °F 29.97 in SSW 5.0 mph 11.0 mph 88% 0.39 in
11:29 46.3 °F 42.9 °F 29.97 in South 5.0 mph 11.0 mph 88% 0.39 in
11:34 46.3 °F 42.6 °F 29.97 in SSW 6.0 mph 9.0 mph 87% 0.39 in
11:39 46.4 °F 42.7 °F 29.97 in South 5.0 mph 9.0 mph 87% 0.39 in
11:44 46.5 °F 42.8 °F 29.97 in SSW 2.0 mph 11.0 mph 87% 0.39 in
11:49 46.6 °F 42.6 °F 29.97 in SSW 3.0 mph 11.0 mph 86% 0.39 in
11:54 46.7 °F 42.7 °F 29.97 in SSW 3.0 mph 9.0 mph 86% 0.39 in
11:59 46.8 °F 43.1 °F 29.97 in SSW 3.0 mph 9.0 mph 87% 0.39 in
12:04 46.9 °F 42.9 °F 29.97 in SSW 2.0 mph 7.0 mph 86% 0.39 in
12:09 47.0 °F 43.0 °F 29.97 in SSW 4.0 mph 8.0 mph 86% 0.39 in
12:14 47.2 °F 43.2 °F 29.96 in SSW 3.0 mph 8.0 mph 86% 0.39 in
12:19 47.3 °F 43.3 °F 29.97 in SSW 4.0 mph 12.0 mph 86% 0.39 in
12:24 47.5 °F 43.2 °F 29.97 in SSW 2.0 mph 12.0 mph 85% 0.39 in
12:29 47.7 °F 43.4 °F 29.97 in SSW 3.0 mph 8.0 mph 85% 0.39 in
12:34 47.9 °F 43.6 °F 29.97 in South 2.0 mph 8.0 mph 85% 0.39 in
12:44 48.4 °F 43.8 °F 29.97 in SSW 3.0 mph 11.0 mph 84% 0.39 in
12:49 48.4 °F 43.2 °F 29.97 in SSW 4.0 mph 11.0 mph 82% 0.39 in
12:54 48.2 °F 43.0 °F 29.97 in SSW 5.0 mph 10.0 mph 82% 0.39 in
12:59 48.2 °F 43.3 °F 29.97 in South 2.0 mph 8.0 mph 83% 0.39 in
13:04 48.1 °F 42.9 °F 29.96 in SSW 4.0 mph 11.0 mph 82% 0.39 in
13:09 48.1 °F 42.9 °F 29.97 in SSW 3.0 mph 11.0 mph 82% 0.39 in
13:14 48.1 °F 42.6 °F 29.96 in SSW 4.0 mph 11.0 mph 81% 0.39 in
13:19 48.3 °F 42.7 °F 29.96 in SSW 4.0 mph 10.0 mph 81% 0.39 in
13:24 48.5 °F 42.9 °F 29.96 in SSW 5.0 mph 11.0 mph 81% 0.39 in
13:29 48.7 °F 43.1 °F 29.96 in SSW 4.0 mph 11.0 mph 81% 0.39 in
13:34 49.1 °F 43.8 °F 29.95 in South 4.0 mph 10.0 mph 82% 0.39 in
13:39 49.4 °F 43.8 °F 29.95 in South 5.0 mph 13.0 mph 81% 0.39 in
13:44 49.7 °F 43.8 °F 29.94 in SSW 5.0 mph 13.0 mph 80% 0.39 in
13:49 50.0 °F 44.1 °F 29.95 in South 6.0 mph 12.0 mph 80% 0.39 in
13:54 50.1 °F 43.5 °F 29.95 in SSW 6.0 mph 12.0 mph 78% 0.39 in
13:59 50.0 °F 43.4 °F 29.95 in SSW 7.0 mph 14.0 mph 78% 0.39 in
14:04 49.8 °F 43.6 °F 29.96 in SSW 4.0 mph 14.0 mph 79% 0.39 in
14:09 49.6 °F 43.0 °F 29.96 in SSW 7.0 mph 13.0 mph 78% 0.39 in
14:14 49.5 °F 42.6 °F 29.96 in SSW 7.0 mph 12.0 mph 77% 0.39 in
14:19 49.4 °F 42.8 °F 29.96 in SSW 7.0 mph 13.0 mph 78% 0.39 in
14:24 49.3 °F 42.7 °F 29.97 in SSW 7.0 mph 13.0 mph 78% 0.39 in
14:29 49.4 °F 42.8 °F 29.97 in SSW 4.0 mph 11.0 mph 78% 0.39 in
14:39 49.4 °F 42.8 °F 29.97 in SSW 1.0 mph 13.0 mph 78% 0.39 in
14:44 49.3 °F 42.7 °F 29.97 in SSW 3.0 mph 12.0 mph 78% 0.39 in
14:49 49.2 °F 42.3 °F 29.98 in SSW 5.0 mph 11.0 mph 77% 0.39 in
14:54 49.1 °F 42.5 °F 29.98 in SSW 3.0 mph 9.0 mph 78% 0.39 in
14:59 49.0 °F 42.1 °F 29.98 in SSW 4.0 mph 8.0 mph 77% 0.39 in
15:04 49.0 °F 42.4 °F 29.98 in SSW 5.0 mph 13.0 mph 78% 0.39 in
15:09 49.1 °F 42.5 °F 29.98 in SSW 3.0 mph 13.0 mph 78% 0.39 in
15:14 49.2 °F 42.6 °F 29.98 in SSW 4.0 mph 7.0 mph 78% 0.39 in
15:19 49.2 °F 42.6 °F 29.98 in SSW 2.0 mph 8.0 mph 78% 0.39 in
15:24 49.3 °F 42.7 °F 29.98 in South 4.0 mph 8.0 mph 78% 0.39 in
15:29 49.2 °F 42.3 °F 29.98 in SSW 4.0 mph 9.0 mph 77% 0.39 in
15:34 49.2 °F 42.3 °F 29.98 in SSW 3.0 mph 9.0 mph 77% 0.39 in
15:39 49.1 °F 42.2 °F 29.98 in SSW 4.0 mph 7.0 mph 77% 0.39 in
15:44 48.9 °F 42.0 °F 29.98 in South 4.0 mph 8.0 mph 77% 0.39 in
15:49 48.8 °F 42.3 °F 29.99 in SSW 1.0 mph 8.0 mph 78% 0.39 in
15:54 48.9 °F 42.3 °F 29.99 in SSW 2.0 mph 7.0 mph 78% 0.39 in
15:59 48.9 °F 42.7 °F 29.99 in Calm   7.0 mph 79% 0.39 in
16:04 48.9 °F 42.3 °F 29.98 in SW 3.0 mph 6.0 mph 78% 0.39 in
16:09 48.9 °F 42.7 °F 29.99 in SSW 3.0 mph 6.0 mph 79% 0.39 in
16:14 48.8 °F 42.6 °F 29.98 in South 1.0 mph 6.0 mph 79% 0.39 in
16:19 48.9 °F 42.7 °F 29.98 in Calm   5.0 mph 79% 0.39 in
16:24 48.9 °F 42.7 °F 29.98 in SSW 1.0 mph 5.0 mph 79% 0.39 in
16:29 49.0 °F 42.8 °F 29.98 in South 2.0 mph 7.0 mph 79% 0.39 in
16:34 49.1 °F 42.9 °F 29.98 in SSE 2.0 mph 7.0 mph 79% 0.39 in
16:39 49.0 °F 42.8 °F 29.98 in SSW 1.0 mph 7.0 mph 79% 0.39 in
16:44 48.9 °F 42.7 °F 29.98 in Calm   6.0 mph 79% 0.39 in
16:54 49.0 °F 42.8 °F 29.98 in Calm   5.0 mph 79% 0.39 in
16:59 49.0 °F 42.8 °F 29.98 in Calm   5.0 mph 79% 0.39 in
17:04 49.0 °F 42.8 °F 29.98 in SSW 1.0 mph 3.0 mph 79% 0.39 in
17:09 49.0 °F 42.8 °F 29.98 in Calm   5.0 mph 79% 0.39 in
17:14 48.9 °F 42.7 °F 29.98 in ESE 1.0 mph 7.0 mph 79% 0.39 in
17:19 48.9 °F 42.7 °F 29.98 in SSE 1.0 mph 7.0 mph 79% 0.39 in
17:24 48.9 °F 42.7 °F 29.98 in Calm   6.0 mph 79% 0.39 in
17:29 49.0 °F 42.8 °F 29.98 in Calm   4.0 mph 79% 0.39 in
17:34 49.1 °F 42.9 °F 29.98 in SSW 2.0 mph 7.0 mph 79% 0.39 in
17:39 49.0 °F 42.8 °F 29.98 in SSW 2.0 mph 7.0 mph 79% 0.39 in
17:44 48.9 °F 42.7 °F 29.99 in Calm   7.0 mph 79% 0.39 in
17:49 48.8 °F 42.6 °F 29.99 in SSW 1.0 mph 5.0 mph 79% 0.39 in
17:54 48.8 °F 42.6 °F 29.99 in SSW 1.0 mph 6.0 mph 79% 0.39 in
17:59 48.7 °F 42.8 °F 29.99 in SSW 1.0 mph 6.0 mph 80% 0.39 in
18:04 48.7 °F 42.8 °F 29.99 in South 2.0 mph 6.0 mph 80% 0.39 in
18:09 48.7 °F 42.8 °F 29.99 in SSW 3.0 mph 6.0 mph 80% 0.39 in
18:14 48.7 °F 42.8 °F 29.99 in SSW 1.0 mph 6.0 mph 80% 0.39 in
18:19 48.6 °F 42.7 °F 29.99 in Calm   5.0 mph 80% 0.39 in
18:24 48.6 °F 42.7 °F 29.99 in Calm   4.0 mph 80% 0.39 in
18:29 48.6 °F 42.7 °F 29.99 in Calm   5.0 mph 80% 0.39 in
18:34 48.5 °F 42.6 °F 30.00 in Calm   5.0 mph 80% 0.39 in
18:39 48.5 °F 42.6 °F 30.00 in Calm   3.0 mph 80% 0.39 in
18:44 48.4 °F 42.5 °F 30.00 in Calm   3.0 mph 80% 0.39 in
18:49 48.3 °F 42.4 °F 30.00 in Calm   4.0 mph 80% 0.39 in
18:54 48.2 °F 42.3 °F 30.00 in Calm   4.0 mph 80% 0.39 in
19:04 48.0 °F 42.5 °F 30.01 in Calm   1.0 mph 81% 0.39 in
19:09 47.9 °F 42.4 °F 30.01 in Calm   1.0 mph 81% 0.39 in
19:14 47.7 °F 42.2 °F 30.01 in SSW 1.0 mph 3.0 mph 81% 0.39 in
19:19 47.6 °F 42.1 °F 30.01 in SSW 1.0 mph 4.0 mph 81% 0.39 in
19:24 47.5 °F 42.0 °F 30.01 in SSW 2.0 mph 6.0 mph 81% 0.39 in
19:29 47.4 °F 41.9 °F 30.02 in Calm   6.0 mph 81% 0.39 in
19:34 47.3 °F 42.1 °F 30.02 in SSW 1.0 mph 5.0 mph 82% 0.39 in
19:39 47.2 °F 42.0 °F 30.02 in SSW 2.0 mph 5.0 mph 82% 0.39 in
19:44 47.0 °F 41.8 °F 30.02 in SSW 3.0 mph 6.0 mph 82% 0.39 in
19:49 47.0 °F 41.8 °F 30.02 in SSW 2.0 mph 7.0 mph 82% 0.39 in
19:54 46.9 °F 41.7 °F 30.02 in SSW 1.0 mph 7.0 mph 82% 0.39 in
19:59 46.8 °F 41.9 °F 30.02 in Calm   7.0 mph 83% 0.39 in
20:04 46.6 °F 42.0 °F 30.02 in SW 1.0 mph 7.0 mph 84% 0.39 in
20:09 46.5 °F 41.9 °F 30.02 in Calm   7.0 mph 84% 0.39 in
20:14 46.4 °F 42.1 °F 30.02 in SSW 1.0 mph 7.0 mph 85% 0.39 in
20:19 46.3 °F 42.0 °F 30.03 in Calm   7.0 mph 85% 0.39 in
20:24 46.2 °F 42.2 °F 30.03 in South 2.0 mph 6.0 mph 86% 0.39 in
20:29 46.1 °F 42.1 °F 30.02 in SSW 1.0 mph 7.0 mph 86% 0.39 in
20:34 46.1 °F 42.1 °F 30.02 in Calm   7.0 mph 86% 0.39 in
20:39 46.1 °F 42.4 °F 30.02 in SSE 1.0 mph 5.0 mph 87% 0.39 in
20:44 46.1 °F 42.4 °F 30.03 in South 1.0 mph 6.0 mph 87% 0.39 in
20:49 46.2 °F 42.5 °F 30.03 in Calm   6.0 mph 87% 0.39 in
20:54 46.2 °F 42.5 °F 30.03 in Calm   1.0 mph 87% 0.39 in
20:59 46.2 °F 42.5 °F 30.03 in Calm   1.0 mph 87% 0.39 in
21:04 46.2 °F 42.5 °F 30.03 in South 2.0 mph 6.0 mph 87% 0.39 in
21:09 46.2 °F 42.5 °F 30.03 in Calm   6.0 mph 87% 0.39 in
21:14 46.3 °F 42.6 °F 30.03 in Calm   5.0 mph 87% 0.39 in
21:19 46.3 °F 42.6 °F 30.03 in Calm   2.0 mph 87% 0.39 in
21:24 46.4 °F 42.7 °F 30.03 in Calm     87% 0.39 in
21:29 46.4 °F 42.7 °F 30.04 in Calm     87% 0.39 in
21:34 46.4 °F 42.7 °F 30.04 in Calm     87% 0.39 in
21:39 46.4 °F 42.7 °F 30.04 in Calm   3.0 mph 87% 0.39 in
21:44 46.4 °F 42.7 °F 30.03 in Calm   3.0 mph 87% 0.39 in
21:49 46.3 °F 42.6 °F 30.03 in Calm   3.0 mph 87% 0.39 in
21:54 46.3 °F 42.6 °F 30.03 in Calm     87% 0.39 in
21:59 46.4 °F 42.7 °F 30.03 in Calm     87% 0.39 in
22:04 46.4 °F 42.7 °F 30.03 in Calm     87% 0.39 in
22:09 46.4 °F 42.7 °F 30.03 in Calm     87% 0.39 in
22:14 46.4 °F 43.0 °F 30.03 in Calm   2.0 mph 88% 0.39 in
22:19 46.2 °F 42.8 °F 30.03 in Calm   2.0 mph 88% 0.39 in
22:24 46.0 °F 42.6 °F 30.03 in Calm     88% 0.39 in
22:29 45.9 °F 42.5 °F 30.03 in Calm     88% 0.39 in
22:34 45.8 °F 42.2 °F 30.03 in Calm     87% 0.39 in
22:44 45.7 °F 42.4 °F 30.04 in Calm     88% 0.39 in
22:49 45.6 °F 42.3 °F 30.04 in Calm     88% 0.39 in
22:54 45.6 °F 42.3 °F 30.04 in Calm     88% 0.39 in
22:59 45.6 °F 42.3 °F 30.04 in Calm     88% 0.39 in
23:04 45.6 °F 42.3 °F 30.04 in Calm     88% 0.39 in
23:09 45.6 °F 42.3 °F 30.04 in Calm     88% 0.39 in
23:14 45.7 °F 42.4 °F 30.04 in Calm     88% 0.39 in
23:19 45.7 °F 42.4 °F 30.04 in Calm     88% 0.39 in
23:24 45.7 °F 42.6 °F 30.04 in Calm     89% 0.39 in
23:29 45.7 °F 42.6 °F 30.04 in Calm     89% 0.39 in
23:34 45.7 °F 42.6 °F 30.04 in Calm     89% 0.39 in
23:39 45.6 °F 42.5 °F 30.04 in Calm     89% 0.39 in
23:44 45.6 °F 42.5 °F 30.04 in Calm     89% 0.39 in
23:49 45.6 °F 42.5 °F 30.04 in Calm     89% 0.39 in
23:54 45.7 °F 42.6 °F 30.05 in Calm     89% 0.39 in
23:59 45.7 °F 42.6 °F 30.05 in Calm     89% 0.39 in
Westford Weather
Compliments of Weather Underground

 
 
Current Radar Loop:

Copyright © WestfordWeather.net 2007-2014. All rights reserved.